CheckWX is a tool to help pilots better visualize weather data.  It is not intended as a substitute for an official pre-flight weather briefing.

08:16:30 UTC

CYQL TAF
Lethbridge County Airport
Lethbridge, Canada
TAF CYQL 210538Z 2106/2118 23015G25KT P6SM BKN150 OVC240 TEMPO 2106/2112 SCT150 BKN240 FM211200 24015G25KT P6SM FEW150 SCT240 RMK FCST BASED ON AUTO OBS. NXT FCST BY 211200Z

Jan-21@
06:00 UTC

Jan-21 @ 06:00 UTC

Jan-21@
12:00 UTC

Jan-21 @ 12:00 UTC

TAF CYQL 210538Z 2106/2118 23015G25KT P6SM BKN150 OVC240
Wind
  • 230° at 15 KTS
  • {Gusting to 25 KTS
Cloud Levels
  • Broken at 15,000' AGL
  • Overcast at 24,000' AGL

Jan-21@
06:00 UTC

Jan-21 @ 06:00 UTC

Jan-21@
12:00 UTC

Jan-21 @ 12:00 UTC

TEMPO 2106/2112 SCT150 BKN240

Temporary

Temporary Changes expected for less than half the time period

Cloud Levels
  • Scattered at 15,000' AGL
  • Broken at 24,000' AGL

Jan-21@
12:00 UTC

Jan-21 @ 12:00 UTC

Jan-21@
18:00 UTC

Jan-21 @ 18:00 UTC

FM211200 24015G25KT P6SM FEW150 SCT240 RMK FCST BASED ON AUTO OBS. NXT FCST BY 211200Z

From

From Standard forecast or significant change

Wind
  • 240° at 15 KTS
  • {Gusting to 25 KTS
Cloud Levels
  • Few at 15,000' AGL
  • Scattered at 24,000' AGL